Time;durP1;ratioP1;P1;durP2;ratioP2;P2;SDS_P1;SDS_P2;PMS_P1;PMS_P2;Temp;Humidity;BMP_temperature;BMP_pressure;BME280_temperature;BME280_humidity;BME280_pressure;Samples;Min_cycle;Max_cycle;Signal;HPM_P1;HPM_P2
2023/12/31 00:01:12;;;;;;;14.47;5.43;;;;;;;4.29;100.00;100519.88;5041677;57;1138595;-79
2023/12/31 00:06:19;;;;;;;11.90;5.13;;;;;;;4.23;100.00;100525.83;5192217;55;1138923;-77
2023/12/31 00:11:24;;;;;;;17.07;5.00;;;;;;;4.19;100.00;100524.28;5188733;55;1138784;-78
2023/12/31 00:16:30;;;;;;;12.03;4.90;;;;;;;4.15;100.00;100521.89;5171225;55;1138926;-80
2023/12/31 00:21:36;;;;;;;12.87;4.43;;;;;;;4.14;100.00;100522.81;5202759;55;1138638;-78
2023/12/31 00:26:41;;;;;;;11.78;5.20;;;;;;;4.11;100.00;100515.99;5172100;55;1139064;-78
2023/12/31 00:31:47;;;;;;;19.62;5.45;;;;;;;4.15;100.00;100511.42;5181388;55;1138941;-80
2023/12/31 00:36:52;;;;;;;20.57;7.20;;;;;;;4.19;100.00;100515.13;5193883;55;1141293;-77
2023/12/31 00:41:58;;;;;;;30.90;12.47;;;;;;;4.30;100.00;100525.03;5145296;56;1138887;-77
2023/12/31 00:47:04;;;;;;;26.73;9.80;;;;;;;4.36;100.00;100519.95;5139258;56;1140707;-78
2023/12/31 00:52:10;;;;;;;20.82;8.18;;;;;;;4.29;100.00;100532.50;5184560;55;1138747;-79
2023/12/31 00:57:15;;;;;;;22.02;9.85;;;;;;;4.26;100.00;100535.77;5164605;55;1138752;-78
2023/12/31 01:02:21;;;;;;;22.50;11.08;;;;;;;4.19;100.00;100543.06;5164688;55;1148145;-79
2023/12/31 01:07:27;;;;;;;40.40;15.13;;;;;;;4.16;100.00;100542.76;5021793;57;1140696;-77
2023/12/31 01:12:33;;;;;;;73.27;24.47;;;;;;;4.14;100.00;100549.84;5199040;55;1141005;-77
2023/12/31 01:17:39;;;;;;;48.97;16.77;;;;;;;4.14;100.00;100552.91;5172680;55;1140729;-78
2023/12/31 01:22:44;;;;;;;23.47;8.63;;;;;;;4.11;100.00;100560.95;5181588;56;1141039;-78
2023/12/31 01:27:53;;;;;;;52.13;18.33;;;;;;;4.05;100.00;100556.01;5194622;55;1138946;-80
2023/12/31 01:32:57;;;;;;;26.17;9.77;;;;;;;3.99;100.00;100555.84;5172834;55;1164997;-76
2023/12/31 01:38:03;;;;;;;56.07;22.53;;;;;;;3.92;100.00;100554.47;5178926;55;1138817;-79
2023/12/31 01:43:08;;;;;;;35.70;14.90;;;;;;;3.92;100.00;100554.47;5190527;55;1140854;-80
2023/12/31 01:48:15;;;;;;;20.47;9.33;;;;;;;3.91;100.00;100559.77;5170071;55;1140804;-78
2023/12/31 01:53:21;;;;;;;26.73;8.40;;;;;;;3.87;100.00;100557.77;5176660;55;1138970;-77
2023/12/31 01:58:27;;;;;;;32.23;10.07;;;;;;;3.80;100.00;100556.39;5182999;55;1138873;-78
2023/12/31 02:03:35;;;;;;;21.47;9.90;;;;;;;3.68;100.00;100549.12;5198421;55;1140743;-79
2023/12/31 02:08:40;;;;;;;23.13;9.27;;;;;;;3.54;100.00;100551.94;5167766;55;1138592;-79
2023/12/31 02:13:46;;;;;;;18.40;7.03;;;;;;;3.37;100.00;100548.43;5177094;55;1138818;-78
2023/12/31 02:18:51;;;;;;;16.37;7.93;;;;;;;3.24;100.00;100549.47;5201295;55;1138939;-79
2023/12/31 02:23:57;;;;;;;32.57;11.20;;;;;;;3.17;100.00;100550.70;5179406;55;1138830;-78
2023/12/31 02:29:02;;;;;;;30.43;12.93;;;;;;;3.20;100.00;100543.18;5177809;55;1140706;-77
2023/12/31 02:34:08;;;;;;;21.70;9.10;;;;;;;3.26;100.00;100541.56;5191676;55;1140927;-77
2023/12/31 02:39:14;;;;;;;21.50;8.27;;;;;;;3.25;100.00;100541.17;5168740;55;1138547;-79
2023/12/31 02:44:21;;;;;;;17.70;8.00;;;;;;;3.08;100.00;100541.96;5107741;56;1138746;-78
2023/12/31 02:49:26;;;;;;;18.43;7.10;;;;;;;3.02;100.00;100540.95;5036232;57;1138581;-79
2023/12/31 02:54:32;;;;;;;17.27;6.47;;;;;;;2.99;100.00;100544.55;5051950;57;1138869;-80
2023/12/31 02:59:38;;;;;;;23.63;7.80;;;;;;;2.99;100.00;100544.55;5105506;56;1139106;-78
2023/12/31 03:04:43;;;;;;;20.75;7.35;;;;;;;2.99;100.00;100543.70;5101117;56;1138787;-77
2023/12/31 03:09:49;;;;;;;14.43;6.62;;;;;;;3.03;100.00;100542.20;5141450;56;1138816;-78
2023/12/31 03:14:57;;;;;;;16.47;8.10;;;;;;;3.13;100.00;100537.38;5184992;56;1138633;-79
2023/12/31 03:20:02;;;;;;;17.10;8.67;;;;;;;3.27;100.00;100542.80;5185359;55;1138712;-78
2023/12/31 03:25:09;;;;;;;16.43;8.93;;;;;;;3.42;100.00;100530.31;5205441;55;1138372;-76
2023/12/31 03:30:15;;;;;;;23.73;11.97;;;;;;;3.58;100.00;100530.42;5184385;55;1140507;-78
2023/12/31 03:35:20;;;;;;;24.20;10.67;;;;;;;3.72;100.00;100524.05;5137406;55;1140586;-80
2023/12/31 03:40:27;;;;;;;20.93;8.73;;;;;;;3.82;100.00;100524.43;5091533;55;1140840;-76
2023/12/31 03:45:33;;;;;;;25.60;9.90;;;;;;;3.87;100.00;100515.45;5185485;55;1138573;-80
2023/12/31 03:50:38;;;;;;;28.77;10.13;;;;;;;3.85;100.00;100513.36;5165322;56;1138855;-77
2023/12/31 03:55:44;;;;;;;27.32;8.63;;;;;;;3.81;100.00;100504.45;5044972;56;1140882;-76
2023/12/31 04:00:50;;;;;;;20.52;7.90;;;;;;;3.84;100.00;100498.59;5195401;55;1139007;-78
2023/12/31 04:05:55;;;;;;;18.80;7.43;;;;;;;3.89;100.00;100488.75;5163965;55;1138618;-80
2023/12/31 04:11:01;;;;;;;38.13;13.40;;;;;;;3.94;100.00;100483.75;5164484;55;1140906;-77
2023/12/31 04:16:11;;;;;;;25.57;9.73;;;;;;;3.89;100.00;100484.82;5185025;55;1140616;-76
2023/12/31 04:21:16;;;;;;;23.73;9.40;;;;;;;3.74;100.00;100476.90;5163713;55;1138598;-76
2023/12/31 04:26:22;;;;;;;11.40;5.87;;;;;;;3.59;100.00;100478.97;5165459;55;1138343;-78
2023/12/31 04:31:28;;;;;;;17.00;6.67;;;;;;;3.48;100.00;100473.82;5164539;55;1138971;-78
2023/12/31 04:36:33;;;;;;;23.57;7.00;;;;;;;3.44;100.00;100471.42;5185108;55;1138377;-77
2023/12/31 04:41:39;;;;;;;13.17;5.97;;;;;;;3.39;100.00;100454.64;5132557;56;1138957;-76
2023/12/31 04:46:44;;;;;;;13.57;7.60;;;;;;;3.39;100.00;100454.64;5079777;56;1138805;-79
2023/12/31 04:51:50;;;;;;;27.70;10.60;;;;;;;3.41;100.00;100454.56;5099551;56;1138793;-79
2023/12/31 04:56:55;;;;;;;25.00;9.20;;;;;;;3.35;100.00;100449.20;5080061;56;1140648;-78
2023/12/31 05:02:01;;;;;;;22.13;8.20;;;;;;;3.38;100.00;100462.09;5138759;55;1138711;-79
2023/12/31 05:07:09;;;;;;;23.77;9.20;;;;;;;3.41;100.00;100456.73;5177828;55;1138671;-77
2023/12/31 05:12:14;;;;;;;17.87;7.90;;;;;;;3.45;100.00;100449.12;5134828;56;1138952;-78
2023/12/31 05:17:19;;;;;;;21.90;10.27;;;;;;;3.49;100.00;100445.91;5164412;55;1138679;-79
2023/12/31 05:22:25;;;;;;;27.53;10.90;;;;;;;3.53;100.00;100439.58;5151482;55;1140896;-78
2023/12/31 05:27:31;;;;;;;25.73;10.30;;;;;;;3.58;100.00;100440.20;5078585;55;1140744;-77
2023/12/31 05:32:37;;;;;;;23.98;10.18;;;;;;;3.60;100.00;100423.13;5096256;56;1143018;-80
2023/12/31 05:37:43;;;;;;;24.63;10.03;;;;;;;3.65;100.00;100419.38;5123324;56;1145702;-79
2023/12/31 05:42:48;;;;;;;22.67;9.27;;;;;;;3.69;100.00;100420.89;5125127;56;1143114;-79
2023/12/31 05:47:54;;;;;;;28.63;11.77;;;;;;;3.68;100.00;100419.19;5098353;55;1138901;-78
2023/12/31 05:52:59;;;;;;;19.17;8.37;;;;;;;3.65;100.00;100419.38;5099508;55;1140765;-80
2023/12/31 05:58:05;;;;;;;162.40;62.67;;;;;;;3.64;100.00;100411.61;5152799;55;1138567;-77
2023/12/31 06:03:11;;;;;;;28.40;12.20;;;;;;;3.64;100.00;100411.14;5096564;55;1143044;-77
2023/12/31 06:08:18;;;;;;;25.43;10.73;;;;;;;3.64;100.00;100414.22;5099026;56;1140914;-78
2023/12/31 06:13:23;;;;;;;17.57;7.90;;;;;;;3.64;100.00;100405.91;5084706;56;1140667;-79
2023/12/31 06:18:29;;;;;;;24.07;9.90;;;;;;;3.64;100.00;100405.91;5089701;56;1138506;-77
2023/12/31 06:23:34;;;;;;;17.87;7.77;;;;;;;3.66;100.00;100407.99;5094905;56;1141185;-76
2023/12/31 06:28:40;;;;;;;35.10;14.47;;;;;;;3.69;100.00;100407.81;5098465;56;1140717;-76
2023/12/31 06:33:45;;;;;;;98.07;34.88;;;;;;;3.69;100.00;100399.97;5078576;56;1141002;-80
2023/12/31 06:38:51;;;;;;;32.07;12.93;;;;;;;3.67;100.00;100401.81;5078532;56;1140813;-77
2023/12/31 06:43:57;;;;;;;13.85;8.38;;;;;;;3.65;100.00;100397.61;5098858;56;1141086;-77
2023/12/31 06:49:03;;;;;;;17.33;8.13;;;;;;;3.64;100.00;100384.14;5078958;56;1138817;-77
2023/12/31 06:54:08;;;;;;;27.93;11.00;;;;;;;3.61;100.00;100381.22;5078925;56;1138565;-78
2023/12/31 06:59:15;;;;;;;20.63;8.23;;;;;;;3.67;100.00;100376.96;5098392;56;1143073;-80
2023/12/31 07:04:20;;;;;;;26.80;8.70;;;;;;;3.66;100.00;100382.30;5078506;56;1140506;-77
2023/12/31 07:09:28;;;;;;;20.72;9.38;;;;;;;3.68;100.00;100388.27;5098645;56;1140833;-77
2023/12/31 07:14:33;;;;;;;25.50;12.60;;;;;;;3.69;100.00;100388.66;5099591;56;1140684;-78
2023/12/31 07:19:40;;;;;;;30.27;12.43;;;;;;;3.71;100.00;100388.12;5167305;55;1142851;-78
2023/12/31 07:24:46;;;;;;;21.62;9.95;;;;;;;3.75;100.00;100394.44;5041645;56;1142877;-78
2023/12/31 07:29:51;;;;;;;26.53;12.70;;;;;;;3.79;100.00;100405.12;5185755;55;1140895;-79
2023/12/31 07:34:57;;;;;;;30.10;13.93;;;;;;;3.79;100.00;100405.12;5205677;55;1140807;-76
2023/12/31 07:40:04;;;;;;;28.70;15.00;;;;;;;3.74;100.00;100403.20;5180649;55;1140826;-79
2023/12/31 07:45:10;;;;;;;29.80;14.07;;;;;;;3.68;100.00;100403.50;5020473;57;1140705;-79
2023/12/31 07:50:16;;;;;;;25.60;14.03;;;;;;;3.64;100.00;100397.22;5140973;56;1140811;-77
2023/12/31 07:55:21;;;;;;;25.03;13.63;;;;;;;3.55;100.00;100398.52;5185585;55;1140772;-79
2023/12/31 08:00:30;;;;;;;32.15;15.60;;;;;;;3.48;100.00;100394.53;5160713;55;1140830;-78
2023/12/31 08:05:36;;;;;;;25.13;11.53;;;;;;;3.48;100.00;100404.53;5090683;56;1141125;-81
2023/12/31 08:10:41;;;;;;;26.40;11.63;;;;;;;3.51;100.00;100402.23;5084316;56;1140986;-77
2023/12/31 08:15:47;;;;;;;30.60;12.93;;;;;;;3.56;100.00;100394.98;5074121;56;1140993;-79
2023/12/31 08:20:52;;;;;;;29.25;12.88;;;;;;;3.63;100.00;100398.98;5109209;56;1142778;-80
2023/12/31 08:25:58;;;;;;;28.60;14.03;;;;;;;3.69;100.00;100392.13;5138289;55;1140956;-79
2023/12/31 08:31:04;;;;;;;27.80;13.33;;;;;;;3.70;100.00;100392.50;5061033;56;1140942;-77
2023/12/31 08:36:10;;;;;;;22.03;11.10;;;;;;;3.68;100.00;100391.73;5087685;55;1140722;-77
2023/12/31 08:41:15;;;;;;;34.73;13.93;;;;;;;3.67;100.00;100389.19;5099249;56;1140768;-78
2023/12/31 08:46:21;;;;;;;22.30;10.00;;;;;;;3.66;100.00;100390.15;5133146;56;1140743;-78
2023/12/31 08:51:26;;;;;;;28.80;12.10;;;;;;;3.67;100.00;100387.42;5105237;56;1142804;-77
2023/12/31 08:56:32;;;;;;;52.30;21.97;;;;;;;3.73;100.00;100395.43;5078860;57;1142991;-78
2023/12/31 09:01:37;;;;;;;307.37;95.37;;;;;;;3.76;100.00;100384.81;5099354;56;1140793;-78
2023/12/31 09:06:44;;;;;;;197.40;72.95;;;;;;;3.76;100.00;100383.05;5079301;54;1143118;-77
2023/12/31 09:11:50;;;;;;;53.30;22.85;;;;;;;3.78;100.00;100376.44;5107201;56;1142746;-78
2023/12/31 09:16:55;;;;;;;30.72;14.90;;;;;;;3.81;100.00;100377.59;5120561;55;1140679;-78
2023/12/31 09:22:02;;;;;;;20.23;10.63;;;;;;;3.90;100.00;100371.86;5035058;57;1142781;-78
2023/12/31 09:27:08;;;;;;;22.23;10.03;;;;;;;4.01;100.00;100372.13;5044416;57;1142838;-78
2023/12/31 09:32:13;;;;;;;26.30;9.70;;;;;;;4.15;100.00;100367.47;5205396;55;1142866;-78
2023/12/31 09:37:19;;;;;;;22.23;9.90;;;;;;;4.21;100.00;100354.91;5167372;55;1138642;-78
2023/12/31 09:42:41;;;;;;;30.63;15.87;;;;;;;4.22;100.00;100351.83;5118302;56;1138757;-79
2023/12/31 09:47:49;;;;;;;40.08;20.02;;;;;;;4.27;100.00;100341.13;5068450;56;1141219;-79
2023/12/31 09:52:57;;;;;;;41.30;21.15;;;;;;;4.33;100.00;100336.38;5099264;56;1140848;-82
2023/12/31 09:58:04;;;;;;;46.90;22.87;;;;;;;4.40;100.00;100333.82;5079364;56;1143039;-79
2023/12/31 10:03:12;;;;;;;62.43;34.13;;;;;;;4.49;100.00;100326.75;5079270;56;1142749;-79
2023/12/31 10:08:18;;;;;;;24.73;11.37;;;;;;;4.56;100.00;100325.50;5138138;56;1143058;-79
2023/12/31 10:13:26;;;;;;;28.50;12.07;;;;;;;4.61;100.00;100321.28;5149229;55;1140770;-78
2023/12/31 10:18:31;;;;;;;20.53;11.00;;;;;;;4.59;100.00;100313.52;5116427;55;1140956;-78
2023/12/31 10:23:36;;;;;;;21.27;10.00;;;;;;;4.64;100.00;100308.02;4958429;57;1140817;-78
2023/12/31 10:28:43;;;;;;;28.62;10.35;;;;;;;4.72;100.00;100297.97;5135942;56;1140813;-79
2023/12/31 10:33:48;;;;;;;29.37;12.53;;;;;;;4.82;100.00;100300.44;4957636;58;1142862;-80
2023/12/31 10:38:54;;;;;;;29.80;14.60;;;;;;;4.93;100.00;100288.02;5097318;56;1142827;-79
2023/12/31 10:44:03;;;;;;;77.25;36.58;;;;;;;5.01;100.00;100279.72;5192137;55;1142660;-79
2023/12/31 10:49:12;;;;;;;31.50;14.00;;;;;;;5.05;100.00;100283.36;5184553;55;1141022;-79
2023/12/31 10:54:22;;;;;;;80.57;38.00;;;;;;;5.11;100.00;100278.23;5184789;55;1141116;-79
2023/12/31 10:59:30;;;;;;;35.03;15.60;;;;;;;5.16;100.00;100269.18;5198906;55;1140970;-80
2023/12/31 11:04:36;;;;;;;35.60;14.77;;;;;;;5.26;100.00;100258.52;5182023;55;1142810;-79
2023/12/31 11:09:50;;;;;;;35.90;15.76;;;;;;;5.37;100.00;100246.06;5029776;57;1143185;-79
2023/12/31 11:15:14;;;;;;;34.93;15.90;;;;;;;5.44;100.00;100238.20;5075009;55;1142950;-79
2023/12/31 11:20:37;;;;;;;33.17;14.37;;;;;;;5.51;100.00;100232.10;5120490;56;1140818;-79
2023/12/31 11:25:49;;;;;;;76.80;31.84;;;;;;;5.60;100.00;100222.38;5126262;55;1142971;-79
2023/12/31 11:31:02;;;;;;;75.00;31.20;;;;;;;5.70;100.00;100216.08;5149911;55;1142929;-79
2023/12/31 11:36:13;;;;;;;41.90;18.57;;;;;;;5.80;100.00;100202.31;5183505;56;1142976;-79
2023/12/31 11:41:20;;;;;;;52.60;25.33;;;;;;;5.92;100.00;100188.44;5135651;55;1142717;-81
2023/12/31 11:46:38;;;;;;;54.67;23.60;;;;;;;5.97;100.00;100175.84;5079191;56;1140820;-82
2023/12/31 11:52:01;;;;;;;46.73;23.32;;;;;;;6.03;100.00;100169.36;5093040;56;1143113;-81
2023/12/31 11:57:13;;;;;;;166.97;65.17;;;;;;;6.08;100.00;100157.27;5099273;56;1142809;-81
2023/12/31 12:02:18;;;;;;;186.90;58.43;;;;;;;6.10;100.00;100144.89;5144142;56;1145089;-82
2023/12/31 12:07:24;;;;;;;77.43;30.73;;;;;;;6.26;100.00;100137.19;5085404;56;1145179;-82
2023/12/31 12:12:29;;;;;;;53.13;24.27;;;;;;;6.61;100.00;100123.03;5079803;56;1141135;-81
2023/12/31 12:17:35;;;;;;;34.97;16.23;;;;;;;6.97;100.00;100121.47;5160595;56;1140960;-81
2023/12/31 12:22:41;;;;;;;38.80;22.27;;;;;;;7.03;100.00;100115.77;5185131;55;1142986;-81
2023/12/31 12:27:48;;;;;;;44.38;22.82;;;;;;;6.87;100.00;100102.88;5184496;55;1143187;-82
2023/12/31 12:32:54;;;;;;;42.13;21.87;;;;;;;6.83;100.00;100103.19;5204418;55;1142657;-82
2023/12/31 12:38:00;;;;;;;43.58;16.62;;;;;;;6.72;100.00;100086.00;5184598;55;1140648;-80
2023/12/31 12:43:06;;;;;;;30.03;16.70;;;;;;;6.73;100.00;100081.09;5133689;55;1142821;-82
2023/12/31 12:48:12;;;;;;;34.93;15.60;;;;;;;6.73;100.00;100076.67;5148043;55;1142950;-79
2023/12/31 12:53:17;;;;;;;39.77;17.37;;;;;;;6.68;100.00;100076.17;5095135;56;1143041;-79
2023/12/31 12:58:23;;;;;;;42.87;21.57;;;;;;;6.54;100.00;100067.91;5092528;56;1140831;-79
2023/12/31 13:03:29;;;;;;;49.10;21.10;;;;;;;6.35;100.00;100060.91;5117719;56;1142920;-80
2023/12/31 13:08:35;;;;;;;59.53;24.40;;;;;;;6.22;100.00;100047.77;5123471;56;1142895;-80
2023/12/31 13:13:41;;;;;;;65.90;26.87;;;;;;;6.20;100.00;100039.14;5116980;56;1143074;-80
2023/12/31 13:18:46;;;;;;;34.10;17.37;;;;;;;6.21;100.00;100026.86;5120347;55;1142986;-79
2023/12/31 13:23:52;;;;;;;40.52;18.62;;;;;;;6.17;100.00;100031.47;5156476;55;1140881;-79
2023/12/31 13:28:58;;;;;;;43.75;15.53;;;;;;;6.07;100.00;100030.87;5134367;55;1141027;-78
2023/12/31 13:34:05;;;;;;;37.80;16.48;;;;;;;6.00;100.00;100027.34;5112039;56;1142924;-78
2023/12/31 13:39:10;;;;;;;40.13;22.47;;;;;;;5.95;100.00;100013.70;5132969;55;1143096;-78
2023/12/31 13:44:16;;;;;;;33.73;17.37;;;;;;;5.93;100.00;100002.45;5121664;56;1143113;-79
2023/12/31 13:49:22;;;;;;;43.60;19.80;;;;;;;5.89;100.00;99999.66;5126371;55;1143139;-79
2023/12/31 13:54:28;;;;;;;49.60;19.67;;;;;;;5.82;100.00;99994.88;5178855;55;1138991;-78
2023/12/31 13:59:33;;;;;;;40.73;18.70;;;;;;;5.76;100.00;99988.27;5169812;56;1139119;-78
2023/12/31 14:04:39;;;;;;;392.03;210.40;;;;;;;5.73;100.00;99988.47;5112904;56;1140760;-78
2023/12/31 14:09:45;;;;;;;127.17;86.90;;;;;;;5.72;100.00;99985.47;5143151;55;1144938;-78
2023/12/31 14:14:50;;;;;;;44.73;19.57;;;;;;;5.72;100.00;99981.53;5112091;55;1142988;-78
2023/12/31 14:19:56;;;;;;;87.90;45.95;;;;;;;5.70;100.00;99989.12;5126163;55;1141170;-79
2023/12/31 14:25:02;;;;;;;56.70;26.23;;;;;;;5.64;100.00;99979.91;5146039;55;1138854;-78
2023/12/31 14:30:09;;;;;;;53.57;27.97;;;;;;;5.58;100.00;99980.30;5103840;56;1138575;-78
2023/12/31 14:35:15;;;;;;;90.40;42.83;;;;;;;5.52;100.00;99986.77;5124070;56;1140824;-78
2023/12/31 14:40:20;;;;;;;106.57;50.70;;;;;;;5.49;100.00;99976.50;5146232;55;1140725;-78
2023/12/31 14:45:26;;;;;;;98.50;51.10;;;;;;;5.44;100.00;99962.84;5108352;56;1142809;-77
2023/12/31 14:50:31;;;;;;;78.60;35.33;;;;;;;5.40;100.00;99952.17;5143142;55;1140586;-78
2023/12/31 14:55:37;;;;;;;79.03;34.80;;;;;;;5.35;100.00;99942.44;5194608;55;1140819;-77
2023/12/31 15:00:43;;;;;;;67.10;29.70;;;;;;;5.26;100.00;99953.06;5204977;55;1141245;-78
2023/12/31 15:05:48;;;;;;;50.23;22.77;;;;;;;5.18;100.00;99936.17;5142979;55;1138503;-78
2023/12/31 15:10:54;;;;;;;64.97;34.65;;;;;;;5.10;100.00;99934.50;5190674;56;1138666;-78
2023/12/31 15:15:59;;;;;;;62.88;34.23;;;;;;;5.01;100.00;99930.70;5188698;55;1141042;-78
2023/12/31 15:21:05;;;;;;;65.25;33.85;;;;;;;4.98;100.00;99928.73;5120810;56;1140739;-78
2023/12/31 15:26:11;;;;;;;59.17;29.77;;;;;;;4.93;100.00;99925.09;5100869;56;1140963;-78
2023/12/31 15:31:17;;;;;;;69.47;33.97;;;;;;;4.89;100.00;99910.49;5122468;55;1140847;-77
2023/12/31 15:36:22;;;;;;;104.13;49.73;;;;;;;4.83;100.00;99909.13;5079196;55;1140853;-77
2023/12/31 15:41:28;;;;;;;98.57;44.23;;;;;;;4.77;100.00;99913.90;5078274;55;1142896;-78
2023/12/31 15:46:34;;;;;;;99.85;48.15;;;;;;;4.70;100.00;99917.86;5131249;55;1140925;-78
2023/12/31 15:51:42;;;;;;;94.53;43.70;;;;;;;4.63;100.00;99908.22;5117709;55;1140753;-77
2023/12/31 15:56:48;;;;;;;64.87;25.77;;;;;;;4.58;100.00;99902.45;5118817;56;1140806;-77
2023/12/31 16:01:53;;;;;;;70.67;32.07;;;;;;;4.55;100.00;99889.08;5152284;55;1140638;-78
2023/12/31 16:06:59;;;;;;;75.03;33.63;;;;;;;4.49;100.00;99887.30;5199088;56;1140639;-78
2023/12/31 16:12:05;;;;;;;64.57;33.23;;;;;;;4.42;100.00;99875.08;5136017;56;1139207;-78
2023/12/31 16:17:10;;;;;;;58.03;24.53;;;;;;;4.39;100.00;99867.88;5105890;55;1138576;-77
2023/12/31 16:22:16;;;;;;;57.60;26.33;;;;;;;4.36;100.00;99870.21;5099900;56;1138732;-77
2023/12/31 16:27:21;;;;;;;48.60;23.83;;;;;;;4.36;100.00;99865.44;5081756;56;1140426;-78
2023/12/31 16:32:27;;;;;;;70.17;30.07;;;;;;;4.34;100.00;99862.92;5099555;56;1140831;-78
2023/12/31 16:37:32;;;;;;;52.27;23.60;;;;;;;4.33;100.00;99845.53;5105674;56;1140873;-78
2023/12/31 16:42:38;;;;;;;50.87;21.50;;;;;;;4.30;100.00;99829.16;5105630;56;1140651;-78
2023/12/31 16:47:44;;;;;;;54.43;22.03;;;;;;;4.29;100.00;99828.80;5064386;56;1140533;-78
2023/12/31 16:52:49;;;;;;;54.10;21.87;;;;;;;4.26;100.00;99822.00;5066536;56;1140798;-78
2023/12/31 16:57:55;;;;;;;47.30;20.63;;;;;;;4.23;100.00;99830.03;5087838;56;1140838;-77
2023/12/31 17:03:01;;;;;;;57.57;22.47;;;;;;;4.13;100.00;99832.37;5058371;56;1140884;-79
2023/12/31 17:08:07;;;;;;;44.43;22.23;;;;;;;4.13;100.00;99832.83;5066431;56;1141154;-79
2023/12/31 17:13:12;;;;;;;55.43;24.67;;;;;;;4.14;100.00;99824.89;5081958;56;1141201;-78
2023/12/31 17:18:18;;;;;;;54.27;24.47;;;;;;;4.16;100.00;99831.34;5070073;55;1138715;-79
2023/12/31 17:23:23;;;;;;;59.57;27.33;;;;;;;4.14;100.00;99841.06;5070803;56;1138803;-79
2023/12/31 17:28:30;;;;;;;225.54;109.86;;;;;;;4.17;100.00;99843.02;5098463;56;1138486;-79
2023/12/31 17:33:35;;;;;;;83.37;42.78;;;;;;;4.23;100.00;99835.27;5038647;57;1145050;-78
2023/12/31 17:38:44;;;;;;;135.30;55.10;;;;;;;4.27;100.00;99836.77;5096498;56;1140836;-79
2023/12/31 17:43:50;;;;;;;102.93;44.40;;;;;;;4.25;100.00;99836.02;5020119;56;1140769;-79
2023/12/31 17:48:55;;;;;;;146.73;57.43;;;;;;;4.19;100.00;99833.30;5107718;56;1140795;-78
2023/12/31 17:54:01;;;;;;;137.33;53.50;;;;;;;4.15;100.00;99819.19;5080789;56;1140961;-77
2023/12/31 17:59:07;;;;;;;136.60;48.57;;;;;;;4.09;100.00;99815.20;5091181;56;1140794;-77
2023/12/31 18:04:12;;;;;;;126.07;46.60;;;;;;;4.09;100.00;99809.97;5112640;55;1143003;-77
2023/12/31 18:09:18;;;;;;;115.40;42.97;;;;;;;4.11;100.00;99798.94;5087055;56;1143045;-76
2023/12/31 18:14:23;;;;;;;114.07;47.20;;;;;;;4.09;100.00;99789.03;5090223;56;1140863;-77
2023/12/31 18:19:30;;;;;;;82.56;34.10;;;;;;;4.08;100.00;99778.66;5100933;56;1140684;-78
2023/12/31 18:24:36;;;;;;;63.68;27.80;;;;;;;4.05;100.00;99771.83;5103884;56;1138574;-77
2023/12/31 18:29:44;;;;;;;54.87;24.00;;;;;;;4.04;100.00;99766.23;5095649;56;1140924;-77
2023/12/31 18:34:49;;;;;;;60.50;27.50;;;;;;;4.03;100.00;99767.16;5089390;56;1140994;-78
2023/12/31 18:39:56;;;;;;;71.87;30.57;;;;;;;4.09;100.00;99775.11;5121073;56;1140971;-78
2023/12/31 18:45:03;;;;;;;53.28;25.14;;;;;;;4.11;100.00;99757.07;5102278;55;1150538;-78
2023/12/31 18:50:09;;;;;;;62.90;29.90;;;;;;;4.11;100.00;99757.54;5105769;56;1138805;-77
2023/12/31 18:55:15;;;;;;;53.27;26.10;;;;;;;4.10;100.00;99770.25;5067120;56;1138937;-77
2023/12/31 19:00:21;;;;;;;51.13;24.20;;;;;;;4.10;100.00;99771.55;5122802;56;1138784;-77
2023/12/31 19:05:27;;;;;;;64.13;24.07;;;;;;;4.11;100.00;99761.47;5062213;56;1138794;-78
2023/12/31 19:10:32;;;;;;;50.55;24.55;;;;;;;4.15;100.00;99745.91;5064632;56;1140795;-78
2023/12/31 19:15:38;;;;;;;55.78;23.57;;;;;;;4.22;100.00;99752.45;5056410;56;1141141;-78
2023/12/31 19:20:45;;;;;;;51.93;23.03;;;;;;;4.23;100.00;99755.45;5114464;56;1141032;-79
2023/12/31 19:25:50;;;;;;;59.10;25.03;;;;;;;4.26;100.00;99760.96;5064811;56;1140810;-78
2023/12/31 19:30:57;;;;;;;64.67;27.13;;;;;;;4.26;100.00;99759.65;5039715;57;1138618;-77
2023/12/31 19:36:03;;;;;;;55.87;24.27;;;;;;;4.22;100.00;99746.75;5188064;55;1138962;-78
2023/12/31 19:41:09;;;;;;;61.00;25.50;;;;;;;4.20;100.00;99751.23;5064347;57;1138785;-78
2023/12/31 19:46:14;;;;;;;57.67;25.00;;;;;;;4.22;100.00;99755.07;5100984;55;1138862;-78
2023/12/31 19:51:20;;;;;;;51.90;23.42;;;;;;;4.22;100.00;99749.37;5184225;56;1140612;-77
2023/12/31 19:56:26;;;;;;;89.47;36.42;;;;;;;4.25;100.00;99752.27;5200858;55;1140614;-77
2023/12/31 20:01:32;;;;;;;86.67;33.65;;;;;;;4.23;100.00;99748.91;5204614;55;1140595;-78
2023/12/31 20:06:38;;;;;;;561.33;135.60;;;;;;;4.23;100.00;99749.75;5185937;55;1140801;-77
2023/12/31 20:11:44;;;;;;;64.60;29.20;;;;;;;4.26;100.00;99742.64;5168213;55;1144751;-77
2023/12/31 20:16:49;;;;;;;85.03;38.47;;;;;;;4.26;100.00;99736.09;5185937;55;1138786;-77
2023/12/31 20:21:55;;;;;;;56.47;26.33;;;;;;;4.26;100.00;99738.71;5196337;55;1138629;-77
2023/12/31 20:27:01;;;;;;;186.17;78.57;;;;;;;4.24;100.00;99747.97;5188377;55;1138722;-77
2023/12/31 20:32:07;;;;;;;249.73;97.93;;;;;;;4.23;100.00;99739.27;5146406;55;1140949;-77
2023/12/31 20:37:13;;;;;;;146.33;56.50;;;;;;;4.26;100.00;99740.02;5108592;56;1142153;-77
2023/12/31 20:42:24;;;;;;;116.13;47.20;;;;;;;4.28;100.00;99744.69;5121632;55;1140667;-77
2023/12/31 20:47:30;;;;;;;274.77;99.47;;;;;;;4.28;100.00;99744.69;5109295;55;1143752;-78
2023/12/31 20:52:35;;;;;;;84.17;35.70;;;;;;;4.27;100.00;99739.92;4971200;57;1142794;-79
2023/12/31 20:57:41;;;;;;;92.35;38.65;;;;;;;4.30;100.00;99742.79;5126882;55;1141148;-78
2023/12/31 21:02:47;;;;;;;72.37;30.63;;;;;;;4.32;100.00;99751.39;5164375;56;1138466;-78
2023/12/31 21:07:53;;;;;;;69.83;30.90;;;;;;;4.32;100.00;99744.84;5113741;56;1141050;-77
2023/12/31 21:13:00;;;;;;;71.93;30.67;;;;;;;4.33;100.00;99746.52;5040497;57;1138941;-77
2023/12/31 21:18:06;;;;;;;104.17;43.33;;;;;;;4.34;100.00;99752.13;5098043;55;1138448;-77
2023/12/31 21:23:11;;;;;;;65.07;34.17;;;;;;;4.33;100.00;99747.37;5132551;55;1141020;-76
2023/12/31 21:28:17;;;;;;;48.43;23.03;;;;;;;4.34;100.00;99755.59;5042430;57;1138773;-77
2023/12/31 21:33:23;;;;;;;73.23;30.73;;;;;;;4.34;100.00;99758.68;5147370;56;1141164;-76
2023/12/31 21:38:28;;;;;;;116.97;43.70;;;;;;;4.36;100.00;99747.17;5152664;55;1141296;-77
2023/12/31 21:43:34;;;;;;;95.03;34.37;;;;;;;4.38;100.00;99753.62;5146631;55;1142867;-76
2023/12/31 21:48:50;;;;;;;61.37;26.85;;;;;;;4.38;100.00;99749.70;5137947;55;1138756;-77
2023/12/31 21:53:57;;;;;;;66.85;28.85;;;;;;;4.40;100.00;99760.91;4986828;57;1141135;-79
2023/12/31 21:59:06;;;;;;;72.15;30.62;;;;;;;4.39;100.00;99751.38;5186986;55;1138663;-77
2023/12/31 22:04:13;;;;;;;99.90;41.37;;;;;;;4.36;100.00;99731.94;5147636;55;1140772;-77
2023/12/31 22:09:18;;;;;;;52.57;23.53;;;;;;;4.34;100.00;99737.73;5178944;55;1140679;-77
2023/12/31 22:14:24;;;;;;;52.20;25.97;;;;;;;4.32;100.00;99748.77;5197379;56;1140776;-78
2023/12/31 22:19:29;;;;;;;62.30;29.73;;;;;;;4.34;100.00;99739.05;5158272;55;1140864;-78
2023/12/31 22:24:38;;;;;;;68.50;34.50;;;;;;;4.36;100.00;99747.64;5161168;55;1140948;-79
2023/12/31 22:29:44;;;;;;;77.07;34.07;;;;;;;4.38;100.00;99742.69;5125001;56;1140952;-77
2023/12/31 22:34:50;;;;;;;65.17;29.07;;;;;;;4.44;100.00;99750.59;5089504;56;1140690;-77
2023/12/31 22:39:55;;;;;;;63.07;31.90;;;;;;;4.47;100.00;99756.95;5086805;56;1140845;-78
2023/12/31 22:45:01;;;;;;;61.63;28.53;;;;;;;4.48;100.00;99758.63;5142198;56;1138693;-77